Time;durP1;ratioP1;P1;durP2;ratioP2;P2;SDS_P1;SDS_P2;PMS_P1;PMS_P2;Temp;Humidity;BMP_temperature;BMP_pressure;BME280_temperature;BME280_humidity;BME280_pressure;Samples;Min_cycle;Max_cycle;Signal;HPM_P1;HPM_P2
2023/11/08 00:01:37;;;;;;;1.47;1.10;;;9.70;99.90;;;;;;5093138;28;20533;-51
2023/11/08 00:04:04;;;;;;;1.63;1.10;;;9.70;99.90;;;;;;5114384;28;20460;-54
2023/11/08 00:06:32;;;;;;;3.10;1.30;;;9.70;99.90;;;;;;5112041;28;20426;-52
2023/11/08 00:09:03;;;;;;;3.10;1.43;;;9.70;99.90;;;;;;5098435;28;20442;-55
2023/11/08 00:11:30;;;;;;;1.50;1.10;;;9.80;99.90;;;;;;5117051;28;20520;-54
2023/11/08 00:13:57;;;;;;;2.20;1.13;;;9.80;99.90;;;;;;5097896;28;20452;-53
2023/11/08 00:16:24;;;;;;;2.43;1.43;;;9.80;99.90;;;;;;5092949;28;20525;-58
2023/11/08 00:18:50;;;;;;;4.13;1.33;;;9.80;99.90;;;;;;5099567;28;20560;-57
2023/11/08 00:21:17;;;;;;;3.00;2.50;;;9.70;99.90;;;;;;5094196;28;20441;-57
2023/11/08 00:23:44;;;;;;;2.20;1.13;;;9.80;99.90;;;;;;5104387;28;20461;-51
2023/11/08 00:26:13;;;;;;;1.23;1.13;;;9.80;99.90;;;;;;5117482;28;20425;-50
2023/11/08 00:28:40;;;;;;;1.13;0.80;;;9.70;99.90;;;;;;5113409;28;20444;-54
2023/11/08 00:31:08;;;;;;;3.47;1.40;;;9.80;99.90;;;;;;5106012;28;20430;-51
2023/11/08 00:33:35;;;;;;;1.23;1.10;;;9.70;99.90;;;;;;5111868;28;20504;-55
2023/11/08 00:36:02;;;;;;;1.30;1.10;;;9.70;99.90;;;;;;5110632;28;20462;-56
2023/11/08 00:38:29;;;;;;;1.97;1.50;;;9.80;99.90;;;;;;5113159;28;20477;-55
2023/11/08 00:40:56;;;;;;;2.60;1.40;;;9.80;99.90;;;;;;5113587;28;20976;-57
2023/11/08 00:43:24;;;;;;;1.40;1.17;;;9.80;99.90;;;;;;5114566;28;20461;-50
2023/11/08 00:45:51;;;;;;;1.20;0.80;;;9.70;99.90;;;;;;5106034;28;20461;-57
2023/11/08 00:48:23;;;;;;;1.47;1.30;;;9.70;99.90;;;;;;5112232;28;20449;-56
2023/11/08 00:50:51;;;;;;;5.30;1.40;;;9.70;99.90;;;;;;5105380;28;20479;-57
2023/11/08 00:53:18;;;;;;;4.63;1.20;;;9.70;99.90;;;;;;5102044;28;20449;-56
2023/11/08 00:55:45;;;;;;;1.30;1.00;;;9.70;99.90;;;;;;5117896;28;20489;-56
2023/11/08 00:58:13;;;;;;;3.40;1.27;;;9.70;99.90;;;;;;5117891;28;20436;-50
2023/11/08 01:00:41;;;;;;;2.80;1.23;;;9.70;99.90;;;;;;5113460;28;20477;-48
2023/11/08 01:03:08;;;;;;;1.50;0.90;;;9.70;99.90;;;;;;5114803;28;20453;-55
2023/11/08 01:05:35;;;;;;;3.20;1.17;;;9.70;99.90;;;;;;5117238;28;20445;-55
2023/11/08 01:08:02;;;;;;;1.50;1.17;;;9.80;99.90;;;;;;5120203;28;20473;-51
2023/11/08 01:10:29;;;;;;;2.03;1.37;;;9.70;99.90;;;;;;5102484;28;20469;-55
2023/11/08 01:12:56;;;;;;;1.67;1.13;;;9.70;99.90;;;;;;5100975;28;20449;-51
2023/11/08 01:15:23;;;;;;;1.10;0.87;;;9.70;99.90;;;;;;5114244;28;20433;-47
2023/11/08 01:17:51;;;;;;;2.43;1.30;;;9.80;99.90;;;;;;5118527;28;20442;-52
2023/11/08 01:20:18;;;;;;;1.50;1.10;;;9.70;99.90;;;;;;5093312;28;20577;-52
2023/11/08 01:22:45;;;;;;;1.20;1.10;;;9.70;99.90;;;;;;5076442;28;20446;-55
2023/11/08 01:25:12;;;;;;;1.60;1.00;;;9.70;99.90;;;;;;5097938;28;20473;-48
2023/11/08 01:27:39;;;;;;;1.33;1.20;;;9.80;99.90;;;;;;5098578;28;20514;-54
2023/11/08 01:30:08;;;;;;;1.40;1.20;;;9.80;99.90;;;;;;5096932;28;20466;-55
2023/11/08 01:32:34;;;;;;;1.17;1.00;;;9.80;99.90;;;;;;5109793;28;20496;-47
2023/11/08 01:35:04;;;;;;;2.73;1.33;;;9.80;99.90;;;;;;5115214;28;20536;-56
2023/11/08 01:37:31;;;;;;;1.23;1.13;;;9.80;99.90;;;;;;5117153;28;20481;-56
2023/11/08 01:39:58;;;;;;;1.97;1.63;;;9.90;99.90;;;;;;5117696;28;20552;-57
2023/11/08 01:42:25;;;;;;;1.50;0.87;;;9.90;99.90;;;;;;5097833;28;20544;-54
2023/11/08 01:44:53;;;;;;;3.10;1.27;;;9.90;99.90;;;;;;5090919;28;20561;-55
2023/11/08 01:47:20;;;;;;;1.80;1.37;;;9.80;99.90;;;;;;5118921;28;20483;-52
2023/11/08 01:49:47;;;;;;;2.57;1.40;;;9.80;99.90;;;;;;5116766;28;20454;-54
2023/11/08 01:52:16;;;;;;;1.40;1.20;;;9.80;99.90;;;;;;5118002;28;20578;-53
2023/11/08 01:54:45;;;;;;;1.60;1.27;;;9.80;99.90;;;;;;5113997;28;20442;-56
2023/11/08 01:57:13;;;;;;;2.60;1.50;;;9.70;99.90;;;;;;5115945;28;20480;-56
2023/11/08 01:59:40;;;;;;;1.60;1.07;;;9.70;99.90;;;;;;5113200;28;20466;-53
2023/11/08 02:02:07;;;;;;;1.50;1.23;;;9.60;99.90;;;;;;5097274;28;20973;-57
2023/11/08 02:04:35;;;;;;;3.00;1.30;;;9.60;99.90;;;;;;5095662;28;20541;-58
2023/11/08 02:07:02;;;;;;;2.03;1.33;;;9.50;99.90;;;;;;5094882;28;20981;-57
2023/11/08 02:09:31;;;;;;;2.40;1.20;;;9.40;99.90;;;;;;5094758;28;20477;-56
2023/11/08 02:12:00;;;;;;;3.70;1.47;;;9.40;99.90;;;;;;5118583;28;20434;-55
2023/11/08 02:14:28;;;;;;;2.27;1.60;;;9.40;99.90;;;;;;5118103;28;20453;-56
2023/11/08 02:16:55;;;;;;;3.93;1.37;;;9.40;99.90;;;;;;5099303;28;20454;-56
2023/11/08 02:19:25;;;;;;;1.70;1.57;;;9.40;99.90;;;;;;5117815;28;20481;-49
2023/11/08 02:21:52;;;;;;;3.40;1.50;;;9.30;99.90;;;;;;5100879;28;20466;-55
2023/11/08 02:24:22;;;;;;;1.63;1.53;;;9.30;99.90;;;;;;5090506;28;20529;-57
2023/11/08 02:26:49;;;;;;;1.60;1.30;;;9.20;99.90;;;;;;5105479;28;20473;-60
2023/11/08 02:29:17;;;;;;;6.83;1.30;;;9.20;99.90;;;;;;5104364;28;20467;-56
2023/11/08 02:31:44;;;;;;;2.47;1.70;;;9.30;99.90;;;;;;5115009;28;20616;-57
2023/11/08 02:34:11;;;;;;;1.60;1.40;;;9.20;99.90;;;;;;5112290;28;20472;-59
2023/11/08 02:36:38;;;;;;;1.83;1.70;;;9.20;99.90;;;;;;5111542;28;20444;-58
2023/11/08 02:39:05;;;;;;;1.80;1.60;;;9.20;99.90;;;;;;5112065;28;20491;-58
2023/11/08 02:41:35;;;;;;;2.50;1.63;;;9.20;99.90;;;;;;5104698;28;20460;-54
2023/11/08 02:44:02;;;;;;;4.37;2.00;;;9.20;99.90;;;;;;5110297;28;20426;-58
2023/11/08 02:46:30;;;;;;;2.97;1.53;;;9.20;99.90;;;;;;5108882;28;20508;-57
2023/11/08 02:48:58;;;;;;;4.30;1.43;;;9.20;99.90;;;;;;5115557;28;20509;-56
2023/11/08 02:51:25;;;;;;;3.40;1.80;;;9.20;99.90;;;;;;5104210;28;20457;-56
2023/11/08 02:53:53;;;;;;;3.53;1.67;;;9.20;99.90;;;;;;5095534;28;20437;-54
2023/11/08 02:56:20;;;;;;;3.07;1.73;;;9.20;99.90;;;;;;5092359;28;20461;-53
2023/11/08 02:58:51;;;;;;;1.80;1.07;;;9.20;99.90;;;;;;5114202;28;20474;-47
2023/11/08 03:01:18;;;;;;;1.70;1.30;;;9.10;99.90;;;;;;5113162;28;20493;-53
2023/11/08 03:03:45;;;;;;;2.00;1.33;;;9.10;99.90;;;;;;5097615;28;20457;-57
2023/11/08 03:06:12;;;;;;;1.93;1.23;;;9.10;99.90;;;;;;5118768;28;20417;-53
2023/11/08 03:08:39;;;;;;;2.60;1.50;;;9.10;99.90;;;;;;5110358;28;20428;-49
2023/11/08 03:11:06;;;;;;;3.47;1.50;;;9.10;99.90;;;;;;5077747;28;20946;-57
2023/11/08 03:13:33;;;;;;;4.33;1.47;;;9.10;99.90;;;;;;5100834;28;20470;-52
2023/11/08 03:16:01;;;;;;;3.00;1.30;;;9.10;99.90;;;;;;5118113;28;20452;-52
2023/11/08 03:18:28;;;;;;;5.30;1.90;;;9.10;99.90;;;;;;5106107;28;20480;-54
2023/11/08 03:20:54;;;;;;;2.37;1.67;;;9.10;99.90;;;;;;5092302;28;21018;-56
2023/11/08 03:23:22;;;;;;;2.30;1.40;;;9.20;99.90;;;;;;5074504;28;20814;-53
2023/11/08 03:25:49;;;;;;;1.53;1.37;;;9.10;99.90;;;;;;5074288;28;20520;-57
2023/11/08 03:28:16;;;;;;;2.93;1.60;;;9.10;99.90;;;;;;5074493;28;20536;-53
2023/11/08 03:30:43;;;;;;;2.50;2.03;;;9.10;99.90;;;;;;5078970;28;20977;-56
2023/11/08 03:33:11;;;;;;;1.50;1.30;;;9.00;99.90;;;;;;5094460;28;20442;-56
2023/11/08 03:35:38;;;;;;;1.70;1.40;;;9.00;99.90;;;;;;5115112;28;20445;-49
2023/11/08 03:38:05;;;;;;;2.20;1.50;;;9.00;99.90;;;;;;5108258;28;20477;-51
2023/11/08 03:40:31;;;;;;;4.50;1.30;;;8.90;99.90;;;;;;5112662;28;20476;-56
2023/11/08 03:42:58;;;;;;;1.80;1.33;;;8.90;99.90;;;;;;5104706;28;20457;-52
2023/11/08 03:45:25;;;;;;;2.30;1.03;;;8.90;99.90;;;;;;5112835;28;20514;-55
2023/11/08 03:47:52;;;;;;;3.17;1.80;;;8.80;99.90;;;;;;5109501;28;20557;-56
2023/11/08 03:50:20;;;;;;;1.77;1.10;;;8.80;99.90;;;;;;5116434;28;20436;-51
2023/11/08 03:52:47;;;;;;;2.17;1.60;;;8.80;99.90;;;;;;5095115;28;20515;-57
2023/11/08 03:55:14;;;;;;;1.90;1.40;;;8.80;99.90;;;;;;5094078;28;20480;-59
2023/11/08 03:57:44;;;;;;;3.43;1.47;;;8.80;99.90;;;;;;5099907;28;20533;-52
2023/11/08 04:00:15;;;;;;;3.60;1.37;;;8.80;99.90;;;;;;5115422;28;20465;-51
2023/11/08 04:02:41;;;;;;;1.80;1.30;;;8.70;99.90;;;;;;5117488;28;20433;-57
2023/11/08 04:05:08;;;;;;;2.60;1.60;;;8.80;99.90;;;;;;5114941;28;20491;-59
2023/11/08 04:07:37;;;;;;;4.50;1.50;;;8.80;99.90;;;;;;5097076;28;20564;-57
2023/11/08 04:10:04;;;;;;;3.23;1.90;;;8.80;99.90;;;;;;5115645;28;20418;-46
2023/11/08 04:12:31;;;;;;;3.00;1.40;;;8.80;99.90;;;;;;5111057;28;20472;-59
2023/11/08 04:14:58;;;;;;;1.80;1.57;;;8.80;99.90;;;;;;5119420;28;20467;-52
2023/11/08 04:17:25;;;;;;;9.43;1.40;;;8.80;99.90;;;;;;5118033;28;20461;-58
2023/11/08 04:19:52;;;;;;;5.57;1.40;;;8.80;99.90;;;;;;5113474;28;20529;-51
2023/11/08 04:22:18;;;;;;;1.60;1.20;;;8.70;99.90;;;;;;5114924;28;20481;-56
2023/11/08 04:24:47;;;;;;;14.03;2.07;;;8.80;99.90;;;;;;5095805;28;20583;-54
2023/11/08 04:27:14;;;;;;;2.70;1.70;;;8.80;99.90;;;;;;5120015;28;20429;-51
2023/11/08 04:29:41;;;;;;;3.30;1.40;;;8.80;99.90;;;;;;5118551;28;20438;-55
2023/11/08 04:32:08;;;;;;;2.60;1.63;;;8.80;99.90;;;;;;5096188;28;20470;-59
2023/11/08 04:34:35;;;;;;;2.53;1.30;;;8.80;99.90;;;;;;5093770;28;20437;-54
2023/11/08 04:37:05;;;;;;;1.73;1.07;;;8.90;99.90;;;;;;5096071;28;20505;-55
2023/11/08 04:39:31;;;;;;;2.80;1.60;;;8.90;99.90;;;;;;5084166;28;20453;-54
2023/11/08 04:42:02;;;;;;;4.00;1.77;;;8.90;99.90;;;;;;5120895;28;20469;-49
2023/11/08 04:44:29;;;;;;;5.70;1.60;;;8.90;99.90;;;;;;5117668;28;20477;-55
2023/11/08 04:46:55;;;;;;;2.70;1.90;;;8.90;99.90;;;;;;5105872;28;20461;-58
2023/11/08 04:49:22;;;;;;;3.67;1.53;;;9.00;99.90;;;;;;5104969;28;20468;-57
2023/11/08 04:51:49;;;;;;;2.10;1.17;;;9.00;99.90;;;;;;5120702;28;20476;-47
2023/11/08 04:54:16;;;;;;;1.97;1.77;;;9.00;99.90;;;;;;5118271;28;20444;-55
2023/11/08 04:56:43;;;;;;;2.47;1.40;;;9.10;99.90;;;;;;5115937;28;20465;-56
2023/11/08 04:59:12;;;;;;;2.53;1.17;;;9.10;99.90;;;;;;5104115;28;20533;-57
2023/11/08 05:01:41;;;;;;;2.13;1.40;;;9.20;99.90;;;;;;5119508;28;20522;-56
2023/11/08 05:04:08;;;;;;;2.83;1.47;;;9.20;99.90;;;;;;5111198;28;20445;-50
2023/11/08 05:06:35;;;;;;;4.60;1.33;;;9.20;99.90;;;;;;5116696;28;20437;-55
2023/11/08 05:09:03;;;;;;;4.10;1.17;;;9.20;99.90;;;;;;5115672;28;20500;-53
2023/11/08 05:11:29;;;;;;;3.00;1.63;;;9.20;99.90;;;;;;5099936;28;20473;-56
2023/11/08 05:13:56;;;;;;;4.13;1.53;;;9.30;99.90;;;;;;5115613;28;20464;-55
2023/11/08 05:16:24;;;;;;;3.07;2.00;;;9.20;99.90;;;;;;5110543;28;20417;-49
2023/11/08 05:19:03;;;;;;;2.30;1.47;;;9.20;99.90;;;;;;5198440;22;20478;-68
2023/11/08 05:21:41;;;;;;;2.80;1.43;;;9.20;99.90;;;;;;5076209;28;20591;-68
2023/11/08 05:24:08;;;;;;;2.17;1.30;;;9.30;99.90;;;;;;5075084;28;20462;-68
2023/11/08 05:26:36;;;;;;;3.57;1.10;;;9.30;99.90;;;;;;5075495;28;20419;-69
2023/11/08 05:29:25;;;;;;;1.40;1.03;;;9.30;99.90;;;;;;5075475;28;20504;-70
2023/11/08 05:31:53;;;;;;;3.03;1.27;;;9.40;99.90;;;;;;5075781;28;20453;-69
2023/11/08 05:34:20;;;;;;;2.60;1.50;;;9.30;99.90;;;;;;5067569;28;20469;-68
2023/11/08 05:36:50;;;;;;;2.60;1.77;;;9.30;99.90;;;;;;5087431;28;20449;-69
2023/11/08 05:39:24;;;;;;;3.57;2.20;;;9.30;99.90;;;;;;5096036;28;20480;-69
2023/11/08 05:41:54;;;;;;;6.43;1.60;;;9.30;99.90;;;;;;5092712;28;21020;-68
2023/11/08 05:44:21;;;;;;;1.93;1.40;;;9.30;99.90;;;;;;5094292;28;21034;-67
2023/11/08 05:46:56;;;;;;;3.53;1.57;;;9.30;99.90;;;;;;5075204;28;20434;-68
2023/11/08 05:49:23;;;;;;;2.67;1.30;;;9.30;99.90;;;;;;5075751;28;20950;-68
2023/11/08 05:51:50;;;;;;;4.30;1.23;;;9.30;99.90;;;;;;5075019;28;20427;-69
2023/11/08 05:54:17;;;;;;;7.20;2.27;;;9.30;99.90;;;;;;5055441;28;20459;-68
2023/11/08 05:56:53;;;;;;;3.67;1.23;;;9.30;99.90;;;;;;5055124;28;20428;-68
2023/11/08 05:59:20;;;;;;;6.93;1.60;;;9.30;99.90;;;;;;5078884;28;20437;-69
2023/11/08 06:02:01;;;;;;;2.80;1.43;;;9.30;99.90;;;;;;5080802;28;21016;-68
2023/11/08 06:04:28;;;;;;;3.57;1.17;;;9.30;99.90;;;;;;5094939;28;20471;-68
2023/11/08 06:06:55;;;;;;;5.00;1.80;;;9.30;99.90;;;;;;5083494;28;20411;-68
2023/11/08 06:09:22;;;;;;;2.57;1.63;;;9.30;99.90;;;;;;5075654;28;20438;-69
2023/11/08 06:11:52;;;;;;;7.27;2.00;;;9.30;99.90;;;;;;5083345;28;20458;-68
2023/11/08 06:14:19;;;;;;;4.27;1.53;;;9.30;99.90;;;;;;5060666;28;21024;-67
2023/11/08 06:16:47;;;;;;;2.00;1.80;;;9.30;99.90;;;;;;5095344;28;20477;-68
2023/11/08 06:19:15;;;;;;;2.33;1.40;;;9.40;99.90;;;;;;5094710;28;20911;-68
2023/11/08 06:21:48;;;;;;;4.03;1.40;;;9.30;99.90;;;;;;5081915;28;20473;-68
2023/11/08 06:24:15;;;;;;;3.93;1.67;;;9.30;99.90;;;;;;5073791;28;20490;-67
2023/11/08 06:26:42;;;;;;;3.40;1.20;;;9.30;99.90;;;;;;5089947;28;20468;-68
2023/11/08 06:29:16;;;;;;;2.00;1.23;;;9.40;99.90;;;;;;5083198;28;20465;-68
2023/11/08 06:31:45;;;;;;;4.93;1.40;;;9.40;99.90;;;;;;5086756;28;20480;-68
2023/11/08 06:34:13;;;;;;;3.27;1.37;;;9.40;99.90;;;;;;5074552;28;20898;-68
2023/11/08 06:36:42;;;;;;;2.60;1.53;;;9.40;99.90;;;;;;5074166;28;20431;-68
2023/11/08 06:39:17;;;;;;;2.80;1.30;;;9.50;99.90;;;;;;5080355;28;20422;-70
2023/11/08 06:41:44;;;;;;;3.63;1.50;;;9.50;99.90;;;;;;5082450;28;20489;-67
2023/11/08 06:44:11;;;;;;;6.23;1.97;;;9.40;99.90;;;;;;5074368;28;20888;-68
2023/11/08 06:46:52;;;;;;;2.53;1.80;;;9.40;99.90;;;;;;5081464;28;20829;-69
2023/11/08 06:49:25;;;;;;;2.77;1.60;;;9.40;99.90;;;;;;5078944;28;20486;-67
2023/11/08 06:51:53;;;;;;;5.33;1.47;;;9.40;99.90;;;;;;5074121;28;20431;-69
2023/11/08 06:54:20;;;;;;;2.37;1.13;;;9.40;99.90;;;;;;5094021;28;20466;-68
2023/11/08 06:56:53;;;;;;;3.63;1.33;;;9.40;99.90;;;;;;5079636;28;20510;-67
2023/11/08 06:59:20;;;;;;;2.07;1.37;;;9.40;99.90;;;;;;5073718;28;20435;-67
2023/11/08 07:01:47;;;;;;;8.17;2.10;;;9.40;99.90;;;;;;5073189;28;20520;-69
2023/11/08 07:04:34;;;;;;;5.07;2.30;;;9.40;99.90;;;;;;5088099;28;20811;-67
2023/11/08 07:07:14;;;;;;;4.73;1.67;;;9.40;99.90;;;;;;5080100;28;20514;-68
2023/11/08 07:09:41;;;;;;;4.73;1.30;;;9.40;99.90;;;;;;5064070;28;20504;-68
2023/11/08 07:12:09;;;;;;;4.57;1.40;;;9.40;99.90;;;;;;5076880;28;20883;-67
2023/11/08 07:14:38;;;;;;;4.17;1.70;;;9.50;99.90;;;;;;5073932;28;20996;-68
2023/11/08 07:17:14;;;;;;;4.20;1.73;;;9.50;99.90;;;;;;5071886;28;20502;-68
2023/11/08 07:19:48;;;;;;;4.30;1.60;;;9.60;99.90;;;;;;5076286;28;20504;-69
2023/11/08 07:22:32;;;;;;;3.07;1.73;;;9.60;99.90;;;;;;5057527;28;20564;-68
2023/11/08 07:24:59;;;;;;;7.33;1.80;;;9.70;99.90;;;;;;5072266;28;20458;-69
2023/11/08 07:27:31;;;;;;;2.37;1.43;;;9.80;99.90;;;;;;5079027;28;20459;-68
2023/11/08 07:30:16;;;;;;;5.00;2.83;;;9.80;99.90;;;;;;5086999;28;20488;-69
2023/11/08 07:32:57;;;;;;;2.33;1.70;;;9.80;99.90;;;;;;5073352;28;20422;-70
2023/11/08 07:38:48;;;;;;;6.67;1.37;;;9.80;99.90;;;;;;5073820;28;20410;-70
2023/11/08 07:41:31;;;;;;;1.97;1.20;;;9.80;99.90;;;;;;5092187;28;20497;-69
2023/11/08 07:46:27;;;;;;;5.27;2.23;;;9.80;99.90;;;;;;5097060;28;20457;-55
2023/11/08 07:48:55;;;;;;;2.47;1.60;;;9.80;99.90;;;;;;5083393;28;20949;-56
2023/11/08 07:51:22;;;;;;;2.07;1.40;;;9.80;99.90;;;;;;5096848;28;20473;-54
2023/11/08 07:53:51;;;;;;;3.43;1.03;;;9.80;99.90;;;;;;5105628;28;20546;-57
2023/11/08 07:56:18;;;;;;;2.00;1.67;;;9.90;99.90;;;;;;5115077;28;20476;-54
2023/11/08 07:58:45;;;;;;;3.50;1.47;;;10.00;99.90;;;;;;5105381;28;20990;-57
2023/11/08 08:01:12;;;;;;;1.93;1.57;;;10.00;99.90;;;;;;5115053;28;20481;-54
2023/11/08 08:03:40;;;;;;;2.83;2.47;;;10.00;99.90;;;;;;5119052;28;20464;-56
2023/11/08 08:06:07;;;;;;;2.30;1.60;;;10.00;99.90;;;;;;5116616;28;20433;-60
2023/11/08 08:08:34;;;;;;;3.63;2.63;;;10.10;99.90;;;;;;5110303;28;20473;-55
2023/11/08 08:11:03;;;;;;;2.67;1.50;;;10.00;99.90;;;;;;5118899;28;20469;-57
2023/11/08 08:13:30;;;;;;;2.63;2.03;;;9.90;99.90;;;;;;5121635;28;20453;-55
2023/11/08 08:15:57;;;;;;;4.70;1.33;;;9.90;99.90;;;;;;5118742;28;20459;-57
2023/11/08 08:18:24;;;;;;;1.70;1.37;;;9.80;99.90;;;;;;5118557;28;20456;-56
2023/11/08 08:20:51;;;;;;;2.73;1.93;;;9.90;99.90;;;;;;5118135;28;20464;-55
2023/11/08 08:23:18;;;;;;;4.97;1.53;;;9.90;99.90;;;;;;5098287;28;20442;-60
2023/11/08 08:25:45;;;;;;;2.43;1.33;;;9.90;99.90;;;;;;5101053;28;20449;-56
2023/11/08 08:28:13;;;;;;;4.43;1.80;;;9.90;99.90;;;;;;5092510;28;20480;-54
2023/11/08 08:30:41;;;;;;;3.67;1.60;;;9.90;99.90;;;;;;5095128;28;20818;-55
2023/11/08 08:33:07;;;;;;;2.90;1.40;;;10.00;99.90;;;;;;5097881;28;20482;-52
2023/11/08 08:35:35;;;;;;;3.40;1.57;;;10.00;99.90;;;;;;5097548;28;20819;-55
2023/11/08 08:38:02;;;;;;;2.87;1.30;;;10.10;99.90;;;;;;5104092;28;20536;-50
2023/11/08 08:40:30;;;;;;;3.10;1.53;;;10.20;99.90;;;;;;5098124;28;20468;-55
2023/11/08 08:42:57;;;;;;;5.07;1.70;;;10.30;99.90;;;;;;5099910;28;20485;-53
2023/11/08 08:45:27;;;;;;;3.70;2.20;;;10.40;99.90;;;;;;5113849;28;20468;-53
2023/11/08 08:47:57;;;;;;;1.93;1.23;;;10.40;99.90;;;;;;5098238;28;20464;-53
2023/11/08 08:50:24;;;;;;;3.33;1.40;;;10.40;99.90;;;;;;5092569;28;20518;-56
2023/11/08 08:52:53;;;;;;;2.57;1.33;;;10.30;99.90;;;;;;5112735;28;20433;-53
2023/11/08 08:55:21;;;;;;;3.20;1.57;;;10.30;99.90;;;;;;5119598;28;20456;-54
2023/11/08 08:57:49;;;;;;;4.70;1.87;;;10.40;99.90;;;;;;5118756;28;20469;-55
2023/11/08 09:00:18;;;;;;;7.80;2.40;;;10.40;99.90;;;;;;5104577;28;20450;-56
2023/11/08 09:02:46;;;;;;;2.80;1.60;;;10.40;99.90;;;;;;5127248;28;20476;-57
2023/11/08 09:05:13;;;;;;;6.47;1.80;;;10.50;99.90;;;;;;5114122;28;20461;-55
2023/11/08 09:07:41;;;;;;;2.13;1.93;;;10.60;99.90;;;;;;5107390;28;20484;-56
2023/11/08 09:10:09;;;;;;;4.93;1.40;;;10.80;99.90;;;;;;5112181;28;20490;-60
2023/11/08 09:12:36;;;;;;;4.40;2.37;;;10.90;99.90;;;;;;5109242;28;20429;-53
2023/11/08 09:15:04;;;;;;;3.03;1.93;;;11.00;99.90;;;;;;5114680;28;20442;-54
2023/11/08 09:17:31;;;;;;;2.17;1.83;;;11.10;99.90;;;;;;5119239;28;20477;-51
2023/11/08 09:20:01;;;;;;;3.00;1.57;;;11.30;99.90;;;;;;5117419;28;20465;-57
2023/11/08 09:22:28;;;;;;;2.63;1.77;;;11.40;99.90;;;;;;5106882;28;20465;-54
2023/11/08 09:24:57;;;;;;;2.17;1.70;;;11.40;99.90;;;;;;5102865;28;20435;-51
2023/11/08 09:27:25;;;;;;;4.50;2.00;;;11.40;99.90;;;;;;5110171;28;20520;-57
2023/11/08 09:29:52;;;;;;;3.77;2.60;;;11.40;99.90;;;;;;5114460;28;20460;-53
2023/11/08 09:32:20;;;;;;;3.57;1.50;;;11.50;99.90;;;;;;5108760;28;20421;-59
2023/11/08 09:34:49;;;;;;;6.40;1.90;;;11.50;99.90;;;;;;5092176;28;20786;-57
2023/11/08 09:37:17;;;;;;;6.23;1.97;;;11.60;99.90;;;;;;5087126;28;20427;-56
2023/11/08 09:39:49;;;;;;;1.97;1.60;;;11.60;99.90;;;;;;5092613;28;20480;-52
2023/11/08 09:42:17;;;;;;;2.90;1.57;;;11.70;99.90;;;;;;5094857;28;20481;-54
2023/11/08 09:44:46;;;;;;;2.77;1.40;;;11.70;99.90;;;;;;5100145;28;20495;-56
2023/11/08 09:47:14;;;;;;;4.23;1.70;;;11.60;99.90;;;;;;5110222;28;20524;-54
2023/11/08 09:49:42;;;;;;;6.70;1.53;;;11.50;99.90;;;;;;5113953;28;20508;-59
2023/11/08 09:52:11;;;;;;;3.00;1.20;;;11.40;99.90;;;;;;5114509;28;20462;-53
2023/11/08 09:54:41;;;;;;;5.07;2.00;;;11.40;99.90;;;;;;5115827;28;20454;-57
2023/11/08 09:57:12;;;;;;;5.53;1.80;;;11.40;99.90;;;;;;5116891;28;20487;-56
2023/11/08 09:59:41;;;;;;;2.20;1.70;;;11.40;99.90;;;;;;5115149;28;20501;-55
2023/11/08 10:02:11;;;;;;;3.03;2.10;;;11.40;99.90;;;;;;5115856;28;20489;-58
2023/11/08 10:04:39;;;;;;;2.13;1.30;;;11.40;99.90;;;;;;5101936;28;20474;-56
2023/11/08 10:07:07;;;;;;;1.90;1.60;;;11.40;99.90;;;;;;5094115;28;20486;-57
2023/11/08 10:09:36;;;;;;;1.90;1.47;;;11.30;99.90;;;;;;5109104;28;20445;-55
2023/11/08 10:12:08;;;;;;;3.33;1.80;;;11.40;99.90;;;;;;5096428;28;20457;-57
2023/11/08 10:14:36;;;;;;;4.67;1.40;;;11.40;99.90;;;;;;5102635;28;20460;-56
2023/11/08 10:17:04;;;;;;;1.53;1.37;;;11.40;99.90;;;;;;5114580;28;20807;-57
2023/11/08 10:19:41;;;;;;;3.00;2.10;;;11.40;99.90;;;;;;5095450;28;20499;-60
2023/11/08 10:22:19;;;;;;;2.70;1.60;;;11.50;99.90;;;;;;5119719;28;20449;-58
2023/11/08 10:24:54;;;;;;;2.47;1.57;;;11.50;99.90;;;;;;5095094;28;20469;-56
2023/11/08 10:27:23;;;;;;;5.13;1.80;;;11.60;99.90;;;;;;5092250;28;20455;-58
2023/11/08 10:29:54;;;;;;;1.90;1.47;;;11.60;99.90;;;;;;5108860;28;20453;-57
2023/11/08 10:32:23;;;;;;;1.77;1.47;;;11.60;99.90;;;;;;5116141;28;20445;-56
2023/11/08 10:34:51;;;;;;;4.87;1.53;;;11.70;99.90;;;;;;5105392;28;20449;-60
2023/11/08 10:37:25;;;;;;;2.47;1.80;;;11.70;99.90;;;;;;5117006;28;20455;-56
2023/11/08 10:39:54;;;;;;;2.87;1.50;;;11.80;99.90;;;;;;5114732;28;20453;-53
2023/11/08 10:42:24;;;;;;;2.03;1.60;;;11.80;99.90;;;;;;5115727;28;20454;-55
2023/11/08 10:45:06;;;;;;;5.53;1.93;;;11.90;99.90;;;;;;5115584;28;20453;-58
2023/11/08 10:47:33;;;;;;;2.60;1.33;;;12.00;99.90;;;;;;5106396;28;20483;-57
2023/11/08 10:50:01;;;;;;;2.07;1.53;;;12.10;99.90;;;;;;5112522;28;20521;-55
2023/11/08 10:52:28;;;;;;;1.70;1.33;;;12.20;99.90;;;;;;5106971;28;20508;-52
2023/11/08 10:54:55;;;;;;;3.50;1.57;;;12.20;99.90;;;;;;5088993;28;20503;-56
2023/11/08 10:57:24;;;;;;;1.80;1.20;;;12.20;99.90;;;;;;5082978;28;20537;-57
2023/11/08 10:59:52;;;;;;;4.10;1.67;;;12.10;99.90;;;;;;5098561;28;20524;-56
2023/11/08 11:02:29;;;;;;;2.50;1.80;;;12.00;99.90;;;;;;5110234;28;20499;-58
2023/11/08 11:05:01;;;;;;;2.67;1.37;;;12.00;99.90;;;;;;5110471;28;20457;-58
2023/11/08 11:07:29;;;;;;;2.70;1.80;;;11.80;99.90;;;;;;5115446;28;20484;-55
2023/11/08 11:09:58;;;;;;;3.30;1.60;;;11.80;99.90;;;;;;5108312;28;20473;-55
2023/11/08 11:12:38;;;;;;;2.47;1.13;;;11.70;99.90;;;;;;5106581;28;20437;-62
2023/11/08 11:15:12;;;;;;;3.27;1.77;;;11.70;99.90;;;;;;5104554;28;20481;-62
2023/11/08 11:17:44;;;;;;;2.23;1.57;;;11.60;99.90;;;;;;5095500;28;20438;-60
2023/11/08 11:20:14;;;;;;;1.40;1.23;;;11.70;99.90;;;;;;5100338;28;20461;-62
2023/11/08 11:22:42;;;;;;;2.93;1.17;;;11.70;99.90;;;;;;5101946;28;20461;-61
2023/11/08 11:25:11;;;;;;;2.50;1.60;;;11.70;99.90;;;;;;5114663;28;20465;-63
2023/11/08 11:27:46;;;;;;;4.27;2.67;;;11.80;99.90;;;;;;5115948;28;20441;-61
2023/11/08 11:30:26;;;;;;;3.30;1.30;;;11.80;99.90;;;;;;5114579;28;20534;-63
2023/11/08 11:32:54;;;;;;;2.07;1.40;;;11.80;99.90;;;;;;5116077;28;20433;-59
2023/11/08 11:35:21;;;;;;;1.77;1.53;;;11.80;99.90;;;;;;5115798;28;20452;-59
2023/11/08 11:38:23;;;;;;;3.80;1.37;;;11.80;99.90;;;;;;5118720;28;20469;-62
2023/11/08 11:41:20;;;;;;;2.27;1.80;;;11.80;99.90;;;;;;5110695;28;20469;-59
2023/11/08 11:43:51;;;;;;;2.07;1.23;;;11.80;99.90;;;;;;5112248;28;20521;-58
2023/11/08 11:46:24;;;;;;;1.80;1.50;;;11.80;99.90;;;;;;5115422;28;20517;-59
2023/11/08 11:49:13;;;;;;;1.40;1.20;;;11.80;99.90;;;;;;5097747;28;20441;-58
2023/11/08 11:51:42;;;;;;;2.47;1.80;;;11.70;99.90;;;;;;5109444;28;20574;-59
2023/11/08 11:54:12;;;;;;;2.47;1.63;;;11.70;99.90;;;;;;5123004;28;20417;-59
2023/11/08 11:56:41;;;;;;;4.73;1.30;;;11.60;99.90;;;;;;5115952;28;20499;-58
2023/11/08 11:59:09;;;;;;;3.23;1.10;;;11.60;99.90;;;;;;5114581;28;20500;-60
2023/11/08 12:01:37;;;;;;;2.90;1.60;;;11.60;99.90;;;;;;5114751;28;20501;-59
2023/11/08 12:04:04;;;;;;;3.77;1.70;;;11.50;99.90;;;;;;5094149;28;20480;-58
2023/11/08 12:06:32;;;;;;;5.93;1.50;;;11.60;99.90;;;;;;5090982;28;20577;-56
2023/11/08 12:09:00;;;;;;;2.73;1.57;;;12.00;99.90;;;;;;5091135;28;20446;-59
2023/11/08 12:11:27;;;;;;;1.70;1.40;;;12.30;99.90;;;;;;5094648;28;20849;-60
2023/11/08 12:13:54;;;;;;;2.40;1.60;;;12.30;99.90;;;;;;5091879;28;20524;-60
2023/11/08 12:16:23;;;;;;;1.77;1.23;;;12.20;99.90;;;;;;5081444;28;20515;-61
2023/11/08 12:18:51;;;;;;;2.17;1.20;;;12.10;99.90;;;;;;5085340;28;20496;-61
2023/11/08 12:21:19;;;;;;;8.00;1.47;;;12.00;99.90;;;;;;5087922;28;20493;-59
2023/11/08 12:23:49;;;;;;;1.67;1.10;;;12.00;99.90;;;;;;5101509;28;20514;-60
2023/11/08 12:26:16;;;;;;;1.60;1.20;;;11.90;99.90;;;;;;5112338;28;20464;-58
2023/11/08 12:28:44;;;;;;;2.50;1.50;;;11.80;99.90;;;;;;5114765;28;20437;-60
2023/11/08 12:31:14;;;;;;;7.10;1.57;;;11.80;99.90;;;;;;5114693;28;20454;-60
2023/11/08 12:33:43;;;;;;;4.97;2.10;;;11.90;99.90;;;;;;5115515;28;20421;-60
2023/11/08 12:36:10;;;;;;;2.67;1.30;;;12.00;99.90;;;;;;5118801;28;20441;-60
2023/11/08 12:38:40;;;;;;;3.57;1.13;;;12.00;99.90;;;;;;5119140;28;20445;-60
2023/11/08 12:41:09;;;;;;;4.60;1.57;;;12.00;99.90;;;;;;5119127;28;20456;-58
2023/11/08 12:43:38;;;;;;;2.43;1.40;;;12.00;99.90;;;;;;5118169;28;20647;-60
2023/11/08 12:46:07;;;;;;;1.73;1.03;;;12.00;99.90;;;;;;5116597;28;21094;-60
2023/11/08 12:48:35;;;;;;;3.77;1.20;;;11.90;99.90;;;;;;5118456;28;20465;-60
2023/11/08 12:51:07;;;;;;;1.63;1.10;;;12.00;99.90;;;;;;5119002;28;20445;-56
2023/11/08 12:53:35;;;;;;;3.27;1.50;;;12.00;99.90;;;;;;5115495;28;20476;-59
2023/11/08 12:56:04;;;;;;;2.40;1.20;;;12.10;99.90;;;;;;5119354;28;20442;-67
2023/11/08 12:58:32;;;;;;;4.40;1.30;;;12.20;99.90;;;;;;5118970;28;20469;-61
2023/11/08 13:01:00;;;;;;;2.30;1.53;;;12.20;99.90;;;;;;5099411;28;20506;-59
2023/11/08 13:03:29;;;;;;;4.70;1.57;;;12.30;99.90;;;;;;5088000;28;20508;-60
2023/11/08 13:05:58;;;;;;;2.33;1.53;;;12.40;99.90;;;;;;5096439;28;20485;-61
2023/11/08 13:08:27;;;;;;;1.53;1.23;;;12.40;99.90;;;;;;5094562;28;20473;-59